• Join FlightAware (Why Join?)
  • Login
  • US Flag 
10:28PM EDT


 

Airport Tracker/Info


-or-


 

Live Flight TrackerFlight Track Log ✈ N839CA ✈ 26-Aug-2013 ✈ KEWR - KBWI

Flight Track Log - Related Links

Times and Time Zones

All times are in EDT time to prevent confusion due to time zone crossing. See the N839CA flight status page for this flight to view local times or setup timezone preferences in your user account.

Time Position Orientation Groundspeed Altitude Reporting Facility
EDT Latitude Longitude Course Direction KTS MPH feet Rate Location/Type
10:36AM 40.6667 -74.2000 246° West 149 171 1,200  Level New York TRACON
10:37AM 40.6833 -74.2500 294° West 154 177 2,500 1,260 Climbing New York TRACON
10:38AM 40.6833 -74.3000 270° West 140 161 3,900 1,200 Climbing New York TRACON
10:39AM 40.6833 -74.3500 270° West 154 177 5,100 1,260 Climbing New York TRACON
10:40AM 40.7000 -74.4167 288° West 159 183 6,400 1,200 Climbing New York TRACON
10:42AM 40.4689 -74.8101 246° West  Level FlightAware Approximate
10:42AM 40.6958 -74.5236 267° West 161 185 8,800  Level New York Center
10:43AM 40.6978 -74.5922 272° West 167 192 10,000 1,080 Climbing New York Center
10:44AM 40.6939 -74.6467 265° West 167 192 11,000 1,080 Climbing New York Center
10:45AM 40.6936 -74.7150 270° West 173 199 12,200 900 Climbing New York Center
10:46AM 40.6836 -74.7692 256° West 173 199 12,900 780 Climbing New York Center
10:47AM 40.6300 -74.8125 212° Southwest 203 234 13,800 480 Climbing New York Center
10:48AM 40.5828 -74.8508 212° Southwest 214 246 13,900  Climbing New York Center
10:49AM 40.5208 -74.8936 208° Southwest 240 276 13,900  Level New York Center
10:50AM 40.4500 -74.9492 211° Southwest 268 308 13,900  Level New York Center
10:51AM 40.3917 -75.0111 219° Southwest 273 314 13,900  Level New York Center
10:52AM 40.3433 -75.0817 228° Southwest 268 308 13,900  Level New York Center
10:53AM 40.2969 -75.1469 227° Southwest 273 314 13,900  Level New York Center
10:54AM 40.2444 -75.2197 227° Southwest 278 320 13,900  Level New York Center
10:55AM 40.1869 -75.3003 227° Southwest 283 326 14,000  Climbing New York Center
10:56AM 40.1386 -75.3650 226° Southwest 283 326 14,000  Level New York Center
10:57AM 40.0836 -75.4400 226° Southwest 277 319 14,000  Level New York Center
10:58AM 40.0372 -75.5072 228° Southwest 277 319 14,000  Level New York Center
10:59AM 39.9800 -75.5819 225° Southwest 277 319 14,000  Level New York Center
11:00AM 39.9333 -75.6492 228° Southwest 277 319 14,000 -60 Level New York Center
11:01AM 39.8864 -75.7300 233° Southwest 277 319 13,900 -420 Descending New York Center
11:02AM 39.8456 -75.8053 235° Southwest 271 312 13,200 -840 Descending New York Center
11:05AM 39.7333 -76.0167 235° Southwest 291 335 11,300 -720 Descending Potomac TRACON
11:06AM 39.7000 -76.1000 243° Southwest 284 327 10,900 -720 Descending Potomac TRACON
11:06AM 39.6500 -76.1667 226° Southwest 273 314 10,000 -1,020 Descending Potomac TRACON
11:07AM 39.5833 -76.2167 210° Southwest 262 302 9,000 -1,080 Descending Potomac TRACON
11:08AM 39.5333 -76.2833 226° Southwest 262 302 7,900 -1,020 Descending Potomac TRACON
11:09AM 39.4833 -76.3333 218° Southwest 267 307 7,100 -1,020 Descending Potomac TRACON
11:10AM 39.4167 -76.4000 218° Southwest 267 307 6,000 -1,080 Descending Potomac TRACON
11:11AM 39.3500 -76.4167 191° South 271 312 5,000 -1,020 Descending Potomac TRACON
11:12AM 39.2833 -76.4333 191° South 262 302 4,000 -960 Descending Potomac TRACON
11:13AM 39.2000 -76.4500 189° South 255 293 3,100 -840 Descending Potomac TRACON
11:14AM 39.1500 -76.4833 207° Southwest 249 287 2,500 -660 Descending Potomac TRACON
11:15AM 39.1000 -76.5333 218° Southwest 240 276 1,900 -480 Descending Potomac TRACON
11:16AM 39.1000 -76.6000 270° West 177 204 1,600 -600 Descending Potomac TRACON
11:17AM 39.1333 -76.6333 322° Northwest 146 168 800 -840 Descending Potomac TRACON
11:19AM 39.1667 -76.6667 270° West  Level FlightAware Approximate
11:26AM 39.1754 -76.6683 270° West  Level Estimated
11:27AM 39.1754 -76.6683 270° West  Level Estimated